Corvallis, OR (97333)

3:15 AM PDT on July 23, 2016 (GMT -0700)
Near Starker Arts Park | | Change Station

Elev 250 ft 44.55 °N, 123.30 °W | Updated 5 seconds ago

Clear
Clear
54.7 °F
Feels Like 54.7 °F
N
0.0
Wind Variable Wind from North
Gusts 0.0 mph

Today
High -- | Low -- °F
--% Chance of Precip.
Yesterday
High -- | Low -- °F
Precip. -- in
Pressure 30.24 in
Visibility 10.0 miles
Clouds Clear
Dew Point 53 °F
Humidity 93%
Rainfall 0.00 in
Snow Depth Not available.
5:50 AM 8:47 PM
Waning Gibbous, 86% visible
METAR KEUG 230954Z AUTO 33004KT 10SM CLR 12/09 A3024 RMK AO2 SLP240 T01170094 TSNO
Pressure 30.24 in
Visibility 10.0 miles
Clouds Clear
Dew Point 53 °F
Humidity 93%
Rainfall 0.00 in
Snow Depth Not available.
5:50 AM 8:47 PM
Waning Gibbous, 86% visible
METAR KEUG 230954Z AUTO 33004KT 10SM CLR 12/09 A3024 RMK AO2 SLP240 T01170094 TSNO

10-Day Weather Forecast

Almanac

Astronomy

Jul. 23, 2016 Rise Set
Actual Time
Civil Twilight
Nautical Twilight
Astronomical Twilight
Moon
Length of Visible Light
Length of Day
Tomorrow will be .
, % of the Moon is Illuminated

Today's Extremes

State Highs State Lows

Community

WunderPhotos

Upload Photos

1,926,789 photos uploaded!

WunderBlog® & News

Nearby

Air Quality

  Air Quality AQ Index Pollutant
Not available.

Snow Depth

Station Depth Elevation

Earthquake Activity

City Distance Mag. Time & Date
Minimum magnitude displayed is 2.5.

Coastal Water Temperatures

Place Temperature

Stations

Nearby Weather Stations

Station Location Temp. Windchill Dew Point Humidity Wind Precip. Elev Updated Type
                   

Watches & Warnings

There are currently no watches in effect.